Time;durP1;ratioP1;P1;durP2;ratioP2;P2;SDS_P1;SDS_P2;PMS_P1;PMS_P2;Temp;Humidity;BMP_temperature;BMP_pressure;BME280_temperature;BME280_humidity;BME280_pressure;Samples;Min_cycle;Max_cycle;Signal;HPM_P1;HPM_P2
2022/05/18 00:02:44;;;;;;;8.23;2.40;;;;;;;10.23;43.10;100202.06;8203422;28;20071;-72
2022/05/18 00:06:45;;;;;;;6.03;1.80;;;;;;;10.15;43.46;100205.31;8203177;28;20066;-72
2022/05/18 00:10:48;;;;;;;3.22;1.52;;;;;;;10.06;43.52;100212.38;8210039;28;20134;-72
2022/05/18 00:14:50;;;;;;;3.15;1.50;;;;;;;9.96;43.82;100212.44;8203601;28;20549;-72
2022/05/18 00:18:52;;;;;;;8.88;2.10;;;;;;;9.92;43.95;100211.38;8203025;28;20055;-73
2022/05/18 00:22:55;;;;;;;6.68;1.88;;;;;;;9.80;44.30;100218.97;8202770;28;20051;-73
2022/05/18 00:26:56;;;;;;;3.35;1.92;;;;;;;9.68;44.69;100217.41;8194695;28;20043;-72
2022/05/18 00:30:58;;;;;;;5.75;1.90;;;;;;;9.55;44.93;100230.69;8217860;28;20054;-73
2022/05/18 00:34:58;;;;;;;3.28;1.70;;;;;;;9.45;45.03;100228.81;8202720;28;20106;-72
2022/05/18 00:39:00;;;;;;;4.40;1.50;;;;;;;9.40;45.26;100236.91;8203859;28;20051;-73
2022/05/18 00:43:01;;;;;;;5.32;1.98;;;;;;;9.31;45.50;100236.66;8207575;28;20070;-72
2022/05/18 00:47:02;;;;;;;5.10;1.58;;;;;;;9.16;46.03;100241.25;8206250;28;20055;-71
2022/05/18 00:51:16;;;;;;;4.82;1.83;;;;;;;9.05;46.53;100255.81;8227549;28;20050;-71
2022/05/18 00:55:21;;;;;;;3.55;1.60;;;;;;;8.97;46.44;100253.69;8232298;28;20046;-72
2022/05/18 00:59:31;;;;;;;6.95;1.73;;;;;;;8.95;46.92;100261.22;8231675;28;20054;-72
2022/05/18 01:03:40;;;;;;;9.55;1.80;;;;;;;8.85;46.96;100262.84;8232791;28;20054;-73
2022/05/18 01:07:45;;;;;;;5.20;1.58;;;;;;;8.82;47.21;100274.16;8207688;28;20138;-72
2022/05/18 01:11:47;;;;;;;5.40;1.60;;;;;;;8.71;47.45;100275.22;8228751;28;20078;-73
2022/05/18 01:15:47;;;;;;;7.35;1.50;;;;;;;8.65;47.98;100289.75;8200667;28;20062;-72
2022/05/18 01:19:57;;;;;;;3.35;1.60;;;;;;;8.62;48.26;100276.81;8200334;28;20054;-71
2022/05/18 01:24:04;;;;;;;5.38;1.60;;;;;;;8.53;48.46;100285.69;8231788;28;20055;-72
2022/05/18 01:28:06;;;;;;;5.65;1.60;;;;;;;8.47;48.26;100293.75;8193765;28;20073;-71
2022/05/18 01:32:12;;;;;;;6.43;1.45;;;;;;;8.40;48.67;100292.41;8199564;28;20129;-72
2022/05/18 01:36:13;;;;;;;10.95;1.77;;;;;;;8.33;48.98;100291.84;8200393;28;20039;-71
2022/05/18 01:40:29;;;;;;;3.05;1.40;;;;;;;8.29;49.32;100293.41;8217640;28;20054;-72
2022/05/18 01:44:30;;;;;;;4.03;1.30;;;;;;;8.22;49.38;100296.34;8200252;28;20051;-72
2022/05/18 01:48:34;;;;;;;9.75;1.52;;;;;;;8.16;49.24;100296.59;8204512;28;20531;-71
2022/05/18 01:52:36;;;;;;;5.93;1.60;;;;;;;8.11;49.50;100310.03;8200141;28;20143;-72
2022/05/18 01:56:37;;;;;;;4.20;1.60;;;;;;;7.98;49.88;100306.72;8208440;28;20045;-72
2022/05/18 02:00:39;;;;;;;8.68;1.55;;;;;;;7.94;50.32;100307.53;8223631;28;20195;-72
2022/05/18 02:04:41;;;;;;;3.35;2.00;;;;;;;7.82;50.64;100313.13;8232694;28;20042;-72
2022/05/18 02:08:43;;;;;;;10.05;2.10;;;;;;;7.76;50.58;100314.19;8210288;28;20050;-72
2022/05/18 02:12:43;;;;;;;3.72;1.30;;;;;;;7.70;50.82;100309.84;8210302;28;20047;-72
2022/05/18 02:16:44;;;;;;;6.13;2.38;;;;;;;7.63;51.25;100314.63;8199441;28;20094;-71
2022/05/18 02:20:46;;;;;;;5.20;1.77;;;;;;;7.57;51.32;100321.03;8181983;29;20146;-71
2022/05/18 02:24:47;;;;;;;5.70;2.10;;;;;;;7.52;51.62;100329.88;8199928;28;20044;-71
2022/05/18 02:28:48;;;;;;;5.32;2.20;;;;;;;7.43;51.80;100341.38;8202441;28;20054;-73
2022/05/18 02:32:49;;;;;;;4.65;1.95;;;;;;;7.34;51.96;100337.56;8206626;28;20495;-72
2022/05/18 02:36:50;;;;;;;4.32;1.90;;;;;;;7.27;52.09;100353.06;8218846;28;20138;-71
2022/05/18 02:40:51;;;;;;;13.93;2.50;;;;;;;7.16;52.63;100344.94;8216395;28;20062;-71
2022/05/18 02:44:52;;;;;;;12.60;2.17;;;;;;;7.06;52.91;100350.22;8237974;28;20158;-72
2022/05/18 02:48:53;;;;;;;7.63;2.20;;;;;;;7.01;53.06;100357.41;8226732;28;20051;-72
2022/05/18 02:52:54;;;;;;;6.25;1.98;;;;;;;6.91;53.42;100366.19;8204028;28;20071;-72
2022/05/18 02:56:55;;;;;;;6.35;2.15;;;;;;;6.82;53.88;100370.38;8232274;28;20406;-72
2022/05/18 03:00:56;;;;;;;7.05;2.20;;;;;;;6.69;54.26;100368.09;8249658;28;20054;-72
2022/05/18 03:04:57;;;;;;;7.63;2.17;;;;;;;6.70;54.37;100372.41;8207526;28;20058;-73
2022/05/18 03:08:58;;;;;;;6.78;1.92;;;;;;;6.66;54.85;100374.00;8215361;28;20154;-72
2022/05/18 03:12:59;;;;;;;5.45;2.00;;;;;;;6.61;54.89;100387.34;8221221;28;20113;-74
2022/05/18 03:17:00;;;;;;;6.55;2.38;;;;;;;6.60;55.11;100393.78;8219492;28;20111;-72
2022/05/18 03:25:21;;;;;;;7.53;2.47;;;;;;;6.60;55.19;100396.47;8184381;28;20487;-71
2022/05/18 03:29:23;;;;;;;9.15;2.13;;;;;;;6.57;55.26;100407.69;8218979;28;20047;-72
2022/05/18 03:33:24;;;;;;;11.93;2.20;;;;;;;6.54;55.56;100406.34;8232394;28;20106;-72
2022/05/18 03:37:25;;;;;;;17.63;2.20;;;;;;;6.50;55.63;100412.44;8204758;28;20078;-71
2022/05/18 03:41:26;;;;;;;5.60;1.92;;;;;;;6.52;55.70;100410.31;8202185;28;20404;-73
2022/05/18 03:45:27;;;;;;;3.72;2.00;;;;;;;6.55;55.43;100415.19;8205268;28;20055;-71
2022/05/18 03:49:28;;;;;;;10.15;1.85;;;;;;;6.60;55.67;100417.94;8174563;28;20051;-71
2022/05/18 03:53:30;;;;;;;5.95;2.35;;;;;;;6.63;55.66;100414.75;8197703;28;20483;-72
2022/05/18 03:57:30;;;;;;;3.80;1.90;;;;;;;6.70;55.61;100423.44;8201911;28;20117;-72
2022/05/18 04:01:31;;;;;;;10.63;2.17;;;;;;;6.79;55.63;100436.16;8228499;28;20063;-72
2022/05/18 04:05:32;;;;;;;5.70;1.85;;;;;;;6.89;55.36;100446.19;8194983;29;20130;-72
2022/05/18 04:09:33;;;;;;;11.57;2.17;;;;;;;6.99;55.22;100443.59;8180357;28;20114;-72
2022/05/18 04:13:34;;;;;;;5.30;1.83;;;;;;;7.05;55.30;100442.59;8183611;28;20097;-71
2022/05/18 04:17:36;;;;;;;5.65;2.05;;;;;;;7.11;55.32;100452.34;8201982;28;20082;-72
2022/05/18 04:21:37;;;;;;;5.47;1.90;;;;;;;7.17;55.13;100445.97;8200519;28;20051;-72
2022/05/18 04:25:39;;;;;;;11.20;2.17;;;;;;;7.29;54.94;100453.06;8199746;28;20051;-71
2022/05/18 04:29:40;;;;;;;9.15;2.22;;;;;;;7.37;55.16;100450.72;8201340;28;20134;-72
2022/05/18 04:33:41;;;;;;;4.40;1.92;;;;;;;7.43;55.07;100449.69;8200620;28;20049;-72
2022/05/18 04:37:42;;;;;;;6.00;2.30;;;;;;;7.50;54.87;100454.88;8202039;28;20550;-72
2022/05/18 04:41:43;;;;;;;7.45;2.40;;;;;;;7.55;55.07;100468.34;8158012;28;1314483;-73
2022/05/18 04:45:47;;;;;;;7.75;2.33;;;;;;;7.59;54.79;100464.91;8201828;29;20052;-71
2022/05/18 04:49:50;;;;;;;5.38;2.30;;;;;;;7.64;54.95;100461.44;8203043;28;20040;-72
2022/05/18 04:53:52;;;;;;;8.20;1.90;;;;;;;7.76;54.58;100462.06;8169178;28;20055;-73
2022/05/18 04:57:53;;;;;;;7.22;2.20;;;;;;;7.81;54.91;100467.50;8201712;28;20040;-71
2022/05/18 05:01:55;;;;;;;9.43;1.85;;;;;;;7.90;54.44;100465.94;8216572;28;20513;-71
2022/05/18 05:05:56;;;;;;;7.15;2.00;;;;;;;7.99;54.08;100485.91;8201742;28;20479;-73
2022/05/18 05:09:57;;;;;;;5.07;1.92;;;;;;;7.95;53.99;100479.44;8199762;28;20487;-72
2022/05/18 05:13:58;;;;;;;15.32;2.00;;;;;;;8.02;53.97;100496.16;8177011;29;20415;-72
2022/05/18 05:17:59;;;;;;;7.63;2.03;;;;;;;8.09;53.55;100495.13;8202049;28;20074;-73
2022/05/18 05:22:00;;;;;;;9.73;2.33;;;;;;;8.07;53.59;100490.81;8179406;29;20098;-72
2022/05/18 05:26:02;;;;;;;10.60;2.10;;;;;;;8.24;53.22;100487.16;8181485;29;20492;-71
2022/05/18 05:30:04;;;;;;;5.38;2.42;;;;;;;8.25;53.54;100488.78;8183044;28;20047;-73
2022/05/18 05:34:05;;;;;;;5.65;2.38;;;;;;;8.37;53.03;100492.91;8195172;28;20071;-73
2022/05/18 05:38:08;;;;;;;14.70;2.20;;;;;;;8.49;53.07;100495.41;8182165;29;20058;-73
2022/05/18 05:42:09;;;;;;;9.57;2.05;;;;;;;8.59;52.54;100500.84;8221699;28;20102;-73
2022/05/18 05:46:15;;;;;;;18.63;2.50;;;;;;;8.68;52.64;100504.66;8173853;28;20119;-72
2022/05/18 05:50:16;;;;;;;8.45;2.25;;;;;;;8.75;52.10;100505.25;8176628;28;20044;-73
2022/05/18 05:54:19;;;;;;;13.30;1.98;;;;;;;8.76;51.75;100512.25;8170510;28;20051;-72
2022/05/18 05:58:22;;;;;;;8.80;1.95;;;;;;;8.86;51.68;100506.91;8185530;28;20138;-72
2022/05/18 06:02:23;;;;;;;4.13;1.70;;;;;;;8.95;51.45;100509.09;8168577;29;20048;-72
2022/05/18 06:06:24;;;;;;;8.95;2.10;;;;;;;9.07;51.67;100515.06;8168247;29;20043;-72
2022/05/18 06:10:29;;;;;;;12.48;1.90;;;;;;;9.20;50.86;100528.84;8202856;28;20139;-73
2022/05/18 06:14:29;;;;;;;5.88;1.70;;;;;;;9.41;50.58;100529.72;8197996;28;20047;-72
2022/05/18 06:18:36;;;;;;;6.95;1.50;;;;;;;9.61;49.75;100532.47;8198856;28;20407;-72
2022/05/18 06:22:37;;;;;;;6.80;1.60;;;;;;;9.70;49.48;100533.56;8198682;28;20047;-73
2022/05/18 06:26:38;;;;;;;3.72;1.30;;;;;;;9.78;49.19;100534.09;8195806;28;20047;-73
2022/05/18 06:30:40;;;;;;;10.85;1.70;;;;;;;9.93;49.26;100542.22;8195590;28;20134;-71
2022/05/18 06:34:41;;;;;;;8.77;1.52;;;;;;;10.01;48.87;100547.88;8198401;28;20044;-73
2022/05/18 06:38:42;;;;;;;6.13;2.10;;;;;;;10.13;48.56;100547.59;8198498;28;20467;-72
2022/05/18 06:42:44;;;;;;;9.55;1.73;;;;;;;10.23;48.14;100547.63;8195884;28;20492;-72
2022/05/18 06:46:44;;;;;;;6.45;1.67;;;;;;;10.29;48.36;100557.34;8196076;28;20447;-72
2022/05/18 06:50:46;;;;;;;10.45;1.67;;;;;;;10.37;48.25;100564.88;8185415;28;20135;-74
2022/05/18 06:54:47;;;;;;;8.95;2.15;;;;;;;10.48;48.49;100566.50;8167797;29;20047;-73
2022/05/18 06:58:49;;;;;;;8.23;1.92;;;;;;;10.67;48.38;100568.63;8167716;29;20142;-73
2022/05/18 07:02:59;;;;;;;7.63;1.77;;;;;;;10.76;47.64;100577.78;8179044;29;20051;-72
2022/05/18 07:07:09;;;;;;;;;;;;;;;10.86;47.34;100572.34;8165931;28;20423;-72
2022/05/18 07:11:11;;;;;;;3.50;1.50;;;;;;;10.98;47.41;100575.56;8199095;28;19973;-72
2022/05/18 07:15:12;;;;;;;5.90;1.90;;;;;;;11.10;47.15;100577.97;8199240;28;20051;-73
2022/05/18 07:19:14;;;;;;;5.53;1.73;;;;;;;11.17;47.35;100578.47;8199169;28;20431;-72
2022/05/18 07:23:16;;;;;;;5.22;2.00;;;;;;;11.27;46.91;100581.94;8203828;28;20054;-72
2022/05/18 07:27:17;;;;;;;6.70;1.70;;;;;;;11.40;46.58;100584.06;8200161;28;20088;-71
2022/05/18 07:31:19;;;;;;;6.38;1.80;;;;;;;11.56;46.25;100581.25;8179911;29;20040;-72
2022/05/18 07:35:20;;;;;;;9.27;1.88;;;;;;;11.71;45.85;100581.97;8180622;28;20130;-72
2022/05/18 07:39:21;;;;;;;4.30;1.38;;;;;;;11.79;45.53;100581.41;8178006;29;20427;-72
2022/05/18 07:43:22;;;;;;;3.65;1.70;;;;;;;11.91;44.82;100583.75;8178002;28;20051;-72
2022/05/18 07:47:31;;;;;;;4.20;1.55;;;;;;;12.07;44.88;100582.56;8174253;29;20151;-72
2022/05/18 07:51:33;;;;;;;3.43;1.50;;;;;;;12.30;44.51;100585.66;8203637;28;20051;-73
2022/05/18 07:55:34;;;;;;;4.80;1.77;;;;;;;12.47;44.92;100588.75;8173799;29;20768;-72
2022/05/18 07:59:35;;;;;;;3.97;1.77;;;;;;;12.58;44.74;100582.16;8181567;29;20039;-73
2022/05/18 08:03:37;;;;;;;3.90;1.40;;;;;;;12.69;44.61;100580.91;8171350;29;20058;-72
2022/05/18 08:07:39;;;;;;;9.93;1.77;;;;;;;12.81;44.48;100575.94;8182106;28;20052;-72
2022/05/18 08:16:00;;;;;;;5.32;1.60;;;;;;;12.99;43.39;100583.31;8186713;28;20040;-72
2022/05/18 08:20:06;;;;;;;9.65;1.60;;;;;;;13.25;43.63;100585.75;8192488;28;20055;-73
2022/05/18 08:24:08;;;;;;;6.85;1.60;;;;;;;13.45;42.69;100585.50;8192568;29;20126;-72
2022/05/18 08:28:10;;;;;;;6.18;1.73;;;;;;;13.61;43.05;100584.19;8180693;28;20062;-73
2022/05/18 08:32:11;;;;;;;7.53;1.65;;;;;;;13.76;41.96;100592.13;8186124;28;20385;-72
2022/05/18 08:36:13;;;;;;;5.65;1.50;;;;;;;13.85;41.13;100598.50;8189812;28;20122;-73
2022/05/18 08:40:36;;;;;;;6.88;1.70;;;;;;;13.99;39.86;100597.78;8187375;28;20052;-72
2022/05/18 08:44:38;;;;;;;3.65;1.85;;;;;;;14.12;39.13;100594.28;8187028;29;20048;-73
2022/05/18 08:48:42;;;;;;;8.63;1.67;;;;;;;14.18;39.11;100593.09;8180203;28;20559;-73
2022/05/18 08:53:02;;;;;;;5.50;1.33;;;;;;;14.38;36.51;100597.44;8183210;28;20416;-72
2022/05/18 08:57:04;;;;;;;9.82;1.70;;;;;;;14.61;37.31;100599.22;8177423;29;20043;-72
2022/05/18 09:01:11;;;;;;;4.97;1.88;;;;;;;14.71;36.48;100586.22;8174764;29;20061;-72
2022/05/18 09:05:14;;;;;;;4.70;1.40;;;;;;;14.87;37.36;100594.09;8182560;28;20051;-72
2022/05/18 09:13:48;;;;;;;6.68;1.30;;;;;;;15.40;37.04;100581.59;8189512;28;20047;-72
2022/05/18 09:18:03;;;;;;;7.60;1.95;;;;;;;15.51;37.00;100583.03;8182666;29;20044;-73
2022/05/18 09:22:21;;;;;;;7.20;1.67;;;;;;;15.62;36.54;100584.41;8174291;28;20044;-72
2022/05/18 09:26:31;;;;;;;5.90;1.87;;;;;;;15.66;36.57;100589.25;8185844;28;20063;-73
2022/05/18 09:30:39;;;;;;;4.70;1.40;;;;;;;15.88;36.20;100581.09;8173704;29;20130;-72
2022/05/18 09:35:06;;;;;;;8.65;1.35;;;;;;;15.96;35.38;100594.00;8173725;29;20051;-73
2022/05/18 09:39:13;;;;;;;5.45;1.50;;;;;;;16.16;34.82;100593.53;8174238;29;20377;-73
2022/05/18 09:43:26;;;;;;;6.07;1.48;;;;;;;16.27;34.72;100589.44;8217672;28;20400;-72
2022/05/18 09:47:28;;;;;;;2.88;1.45;;;;;;;16.34;34.57;100594.44;8191602;28;20142;-73
2022/05/18 09:51:30;;;;;;;7.20;1.30;;;;;;;16.43;33.18;100587.94;8168533;29;20044;-72
2022/05/18 09:55:31;;;;;;;73.22;3.40;;;;;;;16.52;33.49;100600.81;8199393;28;20056;-73
2022/05/18 09:59:36;;;;;;;6.35;1.08;;;;;;;16.77;32.15;100592.00;8176737;29;20071;-72
2022/05/18 10:08:33;;;;;;;4.35;1.20;;;;;;;16.92;29.51;100594.31;8181864;28;20055;-71
2022/05/18 10:12:58;;;;;;;4.60;1.10;;;;;;;17.08;29.85;100587.31;8170970;29;20064;-73
2022/05/18 10:17:03;;;;;;;2.83;1.00;;;;;;;17.25;29.67;100581.09;8190114;28;20058;-72
2022/05/18 10:21:16;;;;;;;2.88;1.23;;;;;;;17.43;29.85;100581.94;8196127;28;20066;-72
2022/05/18 10:25:25;;;;;;;5.35;1.20;;;;;;;17.68;30.32;100573.81;8186343;28;20039;-73
2022/05/18 10:29:27;;;;;;;5.70;1.30;;;;;;;17.94;29.82;100571.09;8193892;28;20476;-74
2022/05/18 10:33:32;;;;;;;2.67;1.00;;;;;;;17.81;26.94;100572.06;8192104;28;20126;-72
2022/05/18 10:37:37;;;;;;;4.57;0.90;;;;;;;17.89;26.83;100565.78;8195487;28;20047;-72
2022/05/18 10:41:42;;;;;;;4.10;0.90;;;;;;;18.10;27.04;100569.47;8179785;28;20067;-73
2022/05/18 10:45:53;;;;;;;2.17;0.85;;;;;;;18.12;25.40;100567.22;8163603;28;20061;-73
2022/05/18 10:50:48;;;;;;;1.63;0.88;;;;;;;18.10;22.87;100564.00;8192502;28;20049;-72
2022/05/18 10:54:58;;;;;;;2.15;0.93;;;;;;;18.40;26.12;100561.41;8164292;29;20760;-72
2022/05/18 10:59:50;;;;;;;4.60;1.30;;;;;;;18.55;26.98;100564.44;8169626;29;20494;-72
2022/05/18 11:04:01;;;;;;;3.08;1.17;;;;;;;18.61;27.07;100550.59;8105912;29;20152;-74
2022/05/18 11:08:04;;;;;;;4.55;1.17;;;;;;;18.71;27.72;100545.56;8106309;29;20533;-73
2022/05/18 11:12:23;;;;;;;7.18;1.15;;;;;;;18.81;26.99;100550.66;8105787;29;20049;-72
2022/05/18 11:16:58;;;;;;;1.95;1.00;;;;;;;19.01;26.97;100548.31;8103473;29;20485;-74
2022/05/18 11:21:23;;;;;;;2.50;1.08;;;;;;;19.06;25.69;100534.44;8013687;29;20069;-74
2022/05/18 11:25:44;;;;;;;7.35;1.02;;;;;;;19.27;25.90;100535.28;8013797;29;20050;-73
2022/05/18 11:29:57;;;;;;;1.60;1.10;;;;;;;19.28;24.25;100525.94;8013198;29;20045;-73
2022/05/18 11:34:15;;;;;;;1.60;0.80;;;;;;;19.41;24.54;100519.38;8027839;29;20050;-73
2022/05/18 11:39:01;;;;;;;1.63;0.82;;;;;;;19.59;23.94;100504.47;8067183;29;20071;-73
2022/05/18 11:43:33;;;;;;;1.10;0.68;;;;;;;19.67;22.58;100514.53;8036655;29;20042;-74
2022/05/18 11:47:52;;;;;;;2.67;1.08;;;;;;;20.05;23.13;100510.81;8042783;29;20174;-73
2022/05/18 11:52:26;;;;;;;4.25;1.00;;;;;;;20.04;22.05;100503.75;8042931;29;20049;-73
2022/05/18 11:56:36;;;;;;;1.92;0.80;;;;;;;19.83;20.40;100502.97;8060790;29;20057;-73
2022/05/18 12:05:01;;;;;;;4.28;0.80;;;;;;;20.16;20.84;100506.50;8089264;29;20119;-72
2022/05/18 12:09:09;;;;;;;4.45;1.10;;;;;;;20.33;21.29;100506.34;8104125;29;20048;-73
2022/05/18 12:13:46;;;;;;;1.00;0.80;;;;;;;20.59;22.22;100504.09;8146267;29;20500;-73
2022/05/18 12:17:58;;;;;;;0.90;0.75;;;;;;;20.78;21.49;100500.00;8184094;28;20039;-73
2022/05/18 12:22:03;;;;;;;3.60;0.80;;;;;;;20.85;19.66;100494.72;8198714;28;20051;-74
2022/05/18 12:26:06;;;;;;;1.33;0.80;;;;;;;20.92;20.55;100492.22;8198415;28;20047;-74
2022/05/18 12:30:10;;;;;;;9.05;1.10;;;;;;;21.08;20.99;100490.38;8174441;29;20070;-73
2022/05/18 12:34:14;;;;;;;1.52;0.77;;;;;;;21.09;21.47;100483.75;8251790;28;20050;-73
2022/05/18 12:38:25;;;;;;;1.30;0.70;;;;;;;20.96;18.91;100479.41;8246210;28;20055;-73
2022/05/18 12:42:28;;;;;;;4.32;0.90;;;;;;;21.06;20.60;100478.91;8246202;28;20173;-73
2022/05/18 12:46:39;;;;;;;2.97;1.02;;;;;;;21.16;20.93;100478.47;8251649;28;20479;-73
2022/05/18 12:50:54;;;;;;;4.38;0.90;;;;;;;21.20;21.39;100473.91;8242258;28;20073;-73
2022/05/18 12:55:00;;;;;;;2.30;0.80;;;;;;;21.17;21.69;100480.09;8228666;28;20453;-73
2022/05/18 12:59:13;;;;;;;3.63;0.70;;;;;;;21.40;21.17;100483.94;8229742;28;20062;-74
2022/05/18 13:03:16;;;;;;;0.82;0.70;;;;;;;21.53;19.51;100486.63;8246474;28;20417;-74
2022/05/18 13:07:23;;;;;;;3.47;1.00;;;;;;;21.29;19.55;100482.81;8198559;28;20166;-74
2022/05/18 13:11:53;;;;;;;3.55;1.10;;;;;;;21.47;20.89;100473.13;8198549;28;20055;-74
2022/05/18 13:15:57;;;;;;;5.60;1.10;;;;;;;21.35;20.08;100466.91;8198892;28;20566;-75
2022/05/18 13:20:04;;;;;;;3.88;0.90;;;;;;;21.05;19.01;100461.63;8199074;28;20059;-73
2022/05/18 13:24:13;;;;;;;3.67;1.20;;;;;;;21.19;20.66;100458.56;8199666;28;20047;-73
2022/05/18 13:28:14;;;;;;;1.98;1.13;;;;;;;21.51;20.25;100454.00;8200033;28;20087;-73
2022/05/18 13:32:17;;;;;;;1.58;0.80;;;;;;;23.46;19.52;100456.19;8211776;28;20407;-73
2022/05/18 13:36:38;;;;;;;5.53;1.10;;;;;;;25.10;19.20;100455.16;8198795;28;20054;-73
2022/05/18 13:40:46;;;;;;;10.32;1.33;;;;;;;26.64;18.17;100453.72;8206985;28;20573;-74
2022/05/18 13:44:57;;;;;;;3.40;1.10;;;;;;;27.30;18.15;100447.81;8199075;28;20432;-73
2022/05/18 13:49:13;;;;;;;4.22;1.17;;;;;;;28.72;17.38;100442.59;8199866;28;20044;-74
2022/05/18 13:53:29;;;;;;;6.10;1.17;;;;;;;29.35;17.20;100440.88;8191167;28;20130;-73
2022/05/18 13:57:35;;;;;;;3.83;1.20;;;;;;;30.61;16.33;100443.31;8170728;29;20464;-74
2022/05/18 14:01:45;;;;;;;6.03;1.20;;;;;;;31.78;14.96;100442.00;8192410;28;20083;-73
2022/05/18 14:05:46;;;;;;;4.20;0.90;;;;;;;32.16;15.03;100435.06;8188692;29;20144;-74
2022/05/18 14:09:48;;;;;;;2.80;0.90;;;;;;;32.70;14.17;100423.81;8184383;28;20076;-74
2022/05/18 14:13:52;;;;;;;3.53;0.93;;;;;;;33.75;13.68;100434.13;8174312;28;20404;-75
2022/05/18 14:17:55;;;;;;;18.83;11.55;;;;;;;34.42;14.00;100440.19;8178308;28;20070;-74
2022/05/18 14:21:57;;;;;;;2.83;1.15;;;;;;;34.85;13.22;100439.06;8182685;28;20183;-74
2022/05/18 14:26:02;;;;;;;2.03;1.02;;;;;;;35.47;12.86;100423.72;8177672;28;20047;-75
2022/05/18 14:30:06;;;;;;;3.85;1.30;;;;;;;35.67;13.14;100431.97;8203377;28;20050;-75
2022/05/18 14:34:11;;;;;;;5.22;1.13;;;;;;;35.77;12.48;100426.00;8201159;28;20079;-74
2022/05/18 14:38:29;;;;;;;3.15;1.00;;;;;;;36.04;11.75;100428.38;8219829;28;20135;-75
2022/05/18 14:42:30;;;;;;;;;;;;;;;36.15;12.26;100422.44;8205987;28;20052;-75
2022/05/18 14:46:35;;;;;;;2.83;1.02;;;;;;;36.04;12.29;100422.75;8206192;28;19927;-75
2022/05/18 14:50:39;;;;;;;2.45;1.10;;;;;;;36.12;11.04;100412.81;8190562;28;20056;-75
2022/05/18 14:54:43;;;;;;;3.35;1.10;;;;;;;36.82;10.88;100408.88;8199940;29;20051;-75
2022/05/18 14:58:48;;;;;;;1.85;1.00;;;;;;;36.74;11.70;100413.22;8205710;28;20055;-74
2022/05/18 15:02:50;;;;;;;6.75;1.10;;;;;;;36.72;11.60;100415.69;8203132;28;20059;-75
2022/05/18 15:06:55;;;;;;;2.65;1.00;;;;;;;37.56;10.64;100408.16;8203464;28;20079;-75
2022/05/18 15:11:09;;;;;;;4.90;1.17;;;;;;;37.51;10.53;100392.63;8205478;28;20087;-75
2022/05/18 15:15:18;;;;;;;1.83;1.20;;;;;;;37.11;10.68;100392.56;8203550;28;20499;-75
2022/05/18 15:19:26;;;;;;;4.82;1.55;;;;;;;35.44;11.94;100397.28;8187352;28;20499;-74
2022/05/18 15:23:53;;;;;;;6.47;1.40;;;;;;;35.41;11.67;100398.19;8182844;28;20055;-74
2022/05/18 15:27:54;;;;;;;2.92;1.10;;;;;;;33.91;12.71;100389.31;8200347;28;20051;-73
2022/05/18 15:32:12;;;;;;;6.60;1.13;;;;;;;32.61;13.30;100387.19;8199759;28;20058;-73
2022/05/18 15:36:14;;;;;;;3.58;1.15;;;;;;;32.74;13.18;100376.97;8203982;28;20042;-73
2022/05/18 15:40:15;;;;;;;4.20;1.23;;;;;;;32.75;13.55;100381.38;8198992;28;20055;-74
2022/05/18 15:44:16;;;;;;;8.23;1.50;;;;;;;31.22;14.79;100377.31;8165224;28;20149;-74
2022/05/18 15:48:17;;;;;;;2.22;1.02;;;;;;;29.91;15.91;100372.22;8195624;28;20483;-73
2022/05/18 15:52:19;;;;;;;6.03;1.50;;;;;;;29.28;16.24;100368.56;8135148;29;20071;-74
2022/05/18 15:56:22;;;;;;;2.35;0.98;;;;;;;28.32;16.51;100366.00;8133435;29;20060;-74
2022/05/18 16:00:26;;;;;;;2.95;1.23;;;;;;;27.99;17.10;100361.59;8136672;29;20060;-73
2022/05/18 16:04:27;;;;;;;4.82;1.20;;;;;;;28.12;16.04;100371.16;8151584;29;20047;-73
2022/05/18 16:08:28;;;;;;;7.50;0.98;;;;;;;27.27;16.74;100368.16;8164990;29;20043;-74
2022/05/18 16:12:32;;;;;;;2.10;1.10;;;;;;;26.49;18.19;100376.03;8164798;29;20417;-73
2022/05/18 16:16:34;;;;;;;6.60;1.55;;;;;;;25.67;19.10;100350.78;8166169;29;20039;-73
2022/05/18 16:20:35;;;;;;;5.30;1.48;;;;;;;25.63;19.06;100357.06;8164964;29;20055;-73
2022/05/18 16:24:36;;;;;;;4.35;1.55;;;;;;;24.82;19.94;100351.31;8172778;28;20048;-73
2022/05/18 16:28:37;;;;;;;8.68;3.08;;;;;;;24.61;20.74;100351.00;8176195;29;20507;-73
2022/05/18 16:32:38;;;;;;;7.53;1.30;;;;;;;24.23;20.52;100351.19;8191634;28;20059;-73
2022/05/18 16:36:39;;;;;;;8.38;1.50;;;;;;;24.79;19.88;100346.53;8194526;28;20401;-73
2022/05/18 16:40:40;;;;;;;5.47;1.30;;;;;;;25.01;19.83;100352.38;8171767;28;20063;-73
2022/05/18 16:44:44;;;;;;;2.75;1.20;;;;;;;24.27;20.46;100352.09;8187206;28;20139;-74
2022/05/18 16:48:45;;;;;;;4.75;1.25;;;;;;;23.45;21.27;100349.78;8171924;29;20044;-73
2022/05/18 16:52:46;;;;;;;4.57;2.25;;;;;;;22.89;22.51;100355.75;8175300;28;20048;-73
2022/05/18 16:56:47;;;;;;;27.25;10.18;;;;;;;22.47;23.19;100350.03;8174101;28;20056;-74
2022/05/18 17:00:48;;;;;;;38.22;13.23;;;;;;;22.07;23.71;100358.50;8171987;29;20090;-74
2022/05/18 17:09:09;;;;;;;7.50;1.63;;;;;;;21.41;24.48;100353.59;8145285;29;20040;-73
2022/05/18 17:13:11;;;;;;;4.03;1.40;;;;;;;21.14;24.95;100354.44;8172140;28;20082;-73
2022/05/18 17:17:14;;;;;;;3.05;1.23;;;;;;;20.93;25.36;100353.78;8197404;28;20488;-72
2022/05/18 17:21:16;;;;;;;8.88;1.75;;;;;;;20.67;26.03;100357.69;8190220;28;20062;-73
2022/05/18 17:25:17;;;;;;;3.60;1.70;;;;;;;20.45;26.65;100355.47;8179839;28;20043;-72
2022/05/18 17:29:21;;;;;;;4.57;1.27;;;;;;;20.18;27.53;100356.13;8183357;28;20051;-74
2022/05/18 17:33:23;;;;;;;5.00;1.70;;;;;;;19.87;27.74;100355.88;8176995;28;20082;-73
2022/05/18 17:37:24;;;;;;;5.60;1.45;;;;;;;19.54;28.06;100348.47;8180575;28;20055;-73
2022/05/18 17:41:25;;;;;;;4.30;1.33;;;;;;;19.27;29.04;100355.31;8176096;28;20416;-73
2022/05/18 17:45:27;;;;;;;4.95;2.08;;;;;;;19.09;29.44;100353.06;8205577;28;20098;-73
2022/05/18 17:49:31;;;;;;;17.00;3.42;;;;;;;18.90;30.63;100348.88;8176917;29;20051;-73
2022/05/18 17:53:32;;;;;;;11.52;2.90;;;;;;;18.68;31.39;100342.91;8170614;29;20110;-72
2022/05/18 17:57:34;;;;;;;24.25;3.15;;;;;;;18.36;32.04;100353.38;8175416;29;20471;-73
2022/05/18 18:01:38;;;;;;;14.40;2.50;;;;;;;18.04;32.76;100346.59;8169999;29;20055;-74
2022/05/18 18:05:39;;;;;;;5.38;2.15;;;;;;;17.78;33.40;100348.63;8171790;28;20126;-72
2022/05/18 18:09:40;;;;;;;8.68;3.33;;;;;;;17.54;34.00;100353.81;8175150;28;20044;-73
2022/05/18 18:13:40;;;;;;;13.73;3.53;;;;;;;17.24;34.70;100350.97;8182432;28;20050;-72
2022/05/18 18:17:42;;;;;;;25.35;3.05;;;;;;;16.96;35.12;100343.44;8183688;28;20439;-72
2022/05/18 18:21:43;;;;;;;35.22;3.50;;;;;;;16.67;36.08;100346.78;8192575;28;20044;-73
2022/05/18 18:25:48;;;;;;;12.52;3.72;;;;;;;16.44;36.88;100337.91;8197464;28;20069;-73
2022/05/18 18:29:50;;;;;;;15.02;4.30;;;;;;;16.18;37.90;100351.44;8170418;29;20079;-71
2022/05/18 18:33:52;;;;;;;16.90;3.33;;;;;;;15.91;38.52;100340.78;8182696;28;20072;-71
2022/05/18 18:37:53;;;;;;;10.40;3.40;;;;;;;15.66;39.48;100349.59;8178334;28;20082;-72
2022/05/18 18:41:55;;;;;;;16.17;3.50;;;;;;;15.44;39.72;100348.47;8174198;28;20062;-72
2022/05/18 18:54:41;;;;;;;20.40;3.75;;;;;;;14.95;40.41;100351.31;8166651;29;20047;-73
2022/05/18 18:55:08;;;;;;;30.90;3.67;;;;;;;14.64;41.41;100352.03;8171012;28;20475;-72
2022/05/18 18:59:10;;;;;;;23.63;3.83;;;;;;;14.45;41.93;100359.47;8165763;29;20143;-72
2022/05/18 19:03:11;;;;;;;19.88;3.67;;;;;;;14.23;42.21;100351.19;8173686;28;20050;-72
2022/05/18 19:07:13;;;;;;;21.40;3.00;;;;;;;14.01;42.35;100354.63;8187526;28;20142;-72
2022/05/18 19:11:15;;;;;;;12.90;3.10;;;;;;;13.80;42.82;100354.19;8179882;28;20428;-72
2022/05/18 19:15:18;;;;;;;10.57;2.50;;;;;;;13.63;42.80;100364.84;8184848;28;20422;-72
2022/05/18 19:19:20;;;;;;;8.20;2.80;;;;;;;13.50;42.61;100360.16;8215925;28;20142;-71
2022/05/18 19:23:29;;;;;;;41.90;4.80;;;;;;;13.17;42.97;100378.34;8204418;28;20470;-73
2022/05/18 19:27:30;;;;;;;55.88;4.55;;;;;;;12.94;43.22;100362.94;8203976;28;20495;-71
2022/05/18 19:31:32;;;;;;;18.20;3.63;;;;;;;12.80;43.83;100379.13;8218655;28;20051;-71
2022/05/18 19:35:33;;;;;;;14.30;2.70;;;;;;;12.67;44.01;100374.44;8217918;28;20070;-71